Watauga, Texas
Current Conditions -  °F | °C
As of 5:53 PM on Tuesday 25 Nov 2014 (Local Time) from KFTW Reporting Station
Clear Clear  
Wind Chill: 56°   Ceiling: Unl
Heat Index: 56°   Visibility: 10mi
Dew Point: 28°   Wind: 3mph
Humidity: 34%   Direction: 250°WSW
Pressure: 30.16"   Gusts: NA
Location:  32.8687°N, 97.2516°W
Report Text: KFTW 252353Z 25003KT 10SM CLR 13/M02 A3016 RMK AO2 SLP214 T01331022 10167 20133 55004
Loading
Personal Weather Stations






























Interactive Weather Map New forecast layout! Learn more

10-Day Weather Forecast

Advertisements
Track Severe Weather on mobile